sensor_id;sensor_type;location;lat;lon;timestamp;temperature;humidity
35541;DHT22;21650;48.840;9.162;2023-02-28T00:00:19;-1.20;99.90
35541;DHT22;21650;48.840;9.162;2023-02-28T00:02:45;-1.20;99.90
35541;DHT22;21650;48.840;9.162;2023-02-28T00:05:13;-1.20;99.90
35541;DHT22;21650;48.840;9.162;2023-02-28T00:07:40;-1.20;99.90
35541;DHT22;21650;48.840;9.162;2023-02-28T00:10:07;-1.10;99.90
35541;DHT22;21650;48.840;9.162;2023-02-28T00:12:34;-1.20;99.90
35541;DHT22;21650;48.840;9.162;2023-02-28T00:15:01;-1.20;99.90
35541;DHT22;21650;48.840;9.162;2023-02-28T00:17:26;-1.20;99.90
35541;DHT22;21650;48.840;9.162;2023-02-28T00:19:52;-1.20;99.90
35541;DHT22;21650;48.840;9.162;2023-02-28T00:22:19;-1.20;99.90
35541;DHT22;21650;48.840;9.162;2023-02-28T00:24:46;-1.20;99.90
35541;DHT22;21650;48.840;9.162;2023-02-28T00:27:12;-1.20;99.90
35541;DHT22;21650;48.840;9.162;2023-02-28T00:29:38;-1.20;99.90
35541;DHT22;21650;48.840;9.162;2023-02-28T00:32:04;-1.30;99.90
35541;DHT22;21650;48.840;9.162;2023-02-28T00:34:30;-1.30;99.90
35541;DHT22;21650;48.840;9.162;2023-02-28T00:36:55;-1.20;99.90
35541;DHT22;21650;48.840;9.162;2023-02-28T00:39:21;-1.20;99.90
35541;DHT22;21650;48.840;9.162;2023-02-28T00:41:47;-1.20;99.90
35541;DHT22;21650;48.840;9.162;2023-02-28T00:44:12;-1.30;99.90
35541;DHT22;21650;48.840;9.162;2023-02-28T00:46:38;-1.30;99.90
35541;DHT22;21650;48.840;9.162;2023-02-28T00:49:03;-1.30;99.90
35541;DHT22;21650;48.840;9.162;2023-02-28T00:51:29;-1.30;99.90
35541;DHT22;21650;48.840;9.162;2023-02-28T00:53:54;-1.30;99.90
35541;DHT22;21650;48.840;9.162;2023-02-28T00:56:20;-1.30;99.90
35541;DHT22;21650;48.840;9.162;2023-02-28T00:58:45;-1.30;99.90
35541;DHT22;21650;48.840;9.162;2023-02-28T01:01:11;-1.40;99.90
35541;DHT22;21650;48.840;9.162;2023-02-28T01:03:37;-1.40;99.90
35541;DHT22;21650;48.840;9.162;2023-02-28T01:06:02;-1.40;99.90
35541;DHT22;21650;48.840;9.162;2023-02-28T01:08:28;-1.40;99.90
35541;DHT22;21650;48.840;9.162;2023-02-28T01:10:54;-1.40;99.90
35541;DHT22;21650;48.840;9.162;2023-02-28T01:13:19;-1.40;99.90
35541;DHT22;21650;48.840;9.162;2023-02-28T01:15:51;-1.40;99.90
35541;DHT22;21650;48.840;9.162;2023-02-28T01:18:18;-1.40;99.90
35541;DHT22;21650;48.840;9.162;2023-02-28T01:20:43;-1.40;99.90
35541;DHT22;21650;48.840;9.162;2023-02-28T01:23:09;-1.40;99.90
35541;DHT22;21650;48.840;9.162;2023-02-28T01:25:35;-1.40;99.90
35541;DHT22;21650;48.840;9.162;2023-02-28T01:28:01;-1.40;99.90
35541;DHT22;21650;48.840;9.162;2023-02-28T01:30:27;-1.40;99.90
35541;DHT22;21650;48.840;9.162;2023-02-28T01:32:52;-1.40;99.90
35541;DHT22;21650;48.840;9.162;2023-02-28T01:35:19;-1.50;99.90
35541;DHT22;21650;48.840;9.162;2023-02-28T01:37:45;-1.40;99.90
35541;DHT22;21650;48.840;9.162;2023-02-28T01:40:11;-1.40;99.90
35541;DHT22;21650;48.840;9.162;2023-02-28T01:42:37;-1.40;99.90
35541;DHT22;21650;48.840;9.162;2023-02-28T01:45:14;-1.50;99.90
35541;DHT22;21650;48.840;9.162;2023-02-28T01:47:43;-1.50;99.90
35541;DHT22;21650;48.840;9.162;2023-02-28T01:50:15;-1.50;99.90
35541;DHT22;21650;48.840;9.162;2023-02-28T01:52:42;-1.50;99.90
35541;DHT22;21650;48.840;9.162;2023-02-28T01:55:09;-1.50;99.90
35541;DHT22;21650;48.840;9.162;2023-02-28T01:57:40;-1.50;99.90
35541;DHT22;21650;48.840;9.162;2023-02-28T02:00:15;-1.60;99.90
35541;DHT22;21650;48.840;9.162;2023-02-28T02:02:47;-1.50;99.90
35541;DHT22;21650;48.840;9.162;2023-02-28T02:05:25;-1.50;99.90
35541;DHT22;21650;48.840;9.162;2023-02-28T02:07:54;-1.60;99.90
35541;DHT22;21650;48.840;9.162;2023-02-28T02:10:27;-1.60;99.90
35541;DHT22;21650;48.840;9.162;2023-02-28T02:13:25;-1.50;99.90
35541;DHT22;21650;48.840;9.162;2023-02-28T02:16:43;-1.60;99.90
35541;DHT22;21650;48.840;9.162;2023-02-28T02:22:11;-1.60;99.90
35541;DHT22;21650;48.840;9.162;2023-02-28T02:24:48;-1.60;99.90
35541;DHT22;21650;48.840;9.162;2023-02-28T02:28:15;-1.60;99.90
35541;DHT22;21650;48.840;9.162;2023-02-28T02:36:33;-1.60;99.90
35541;DHT22;21650;48.840;9.162;2023-02-28T02:41:42;-1.60;99.90
35541;DHT22;21650;48.840;9.162;2023-02-28T02:44:31;-1.50;99.90
35541;DHT22;21650;48.840;9.162;2023-02-28T02:47:05;-1.50;99.90
35541;DHT22;21650;48.840;9.162;2023-02-28T02:49:32;-1.50;99.90
35541;DHT22;21650;48.840;9.162;2023-02-28T02:52:03;-1.50;99.90
35541;DHT22;21650;48.840;9.162;2023-02-28T02:54:36;-1.50;99.90
35541;DHT22;21650;48.840;9.162;2023-02-28T02:57:11;-1.50;99.90
35541;DHT22;21650;48.840;9.162;2023-02-28T02:59:39;-1.50;99.90
35541;DHT22;21650;48.840;9.162;2023-02-28T03:02:08;-1.40;99.90
35541;DHT22;21650;48.840;9.162;2023-02-28T03:04:40;-1.40;99.90
35541;DHT22;21650;48.840;9.162;2023-02-28T03:07:07;-1.40;99.90
35541;DHT22;21650;48.840;9.162;2023-02-28T03:09:34;-1.40;99.90
35541;DHT22;21650;48.840;9.162;2023-02-28T03:12:01;-1.40;99.90
35541;DHT22;21650;48.840;9.162;2023-02-28T03:20:25;-1.40;99.90
35541;DHT22;21650;48.840;9.162;2023-02-28T03:25:54;-1.30;99.90
35541;DHT22;21650;48.840;9.162;2023-02-28T03:28:49;-1.30;99.90
35541;DHT22;21650;48.840;9.162;2023-02-28T03:31:27;-1.30;99.90
35541;DHT22;21650;48.840;9.162;2023-02-28T03:36:38;-1.30;99.90
35541;DHT22;21650;48.840;9.162;2023-02-28T03:39:12;-1.30;99.90
35541;DHT22;21650;48.840;9.162;2023-02-28T03:41:43;-1.30;99.90
35541;DHT22;21650;48.840;9.162;2023-02-28T03:44:16;-1.30;99.90
35541;DHT22;21650;48.840;9.162;2023-02-28T03:46:49;-1.30;99.90
35541;DHT22;21650;48.840;9.162;2023-02-28T03:49:22;-1.30;99.90
35541;DHT22;21650;48.840;9.162;2023-02-28T03:51:50;-1.30;99.90
35541;DHT22;21650;48.840;9.162;2023-02-28T03:54:20;-1.20;99.90
35541;DHT22;21650;48.840;9.162;2023-02-28T03:56:59;-1.20;99.90
35541;DHT22;21650;48.840;9.162;2023-02-28T03:59:40;-1.20;99.90
35541;DHT22;21650;48.840;9.162;2023-02-28T04:02:07;-1.20;99.90
35541;DHT22;21650;48.840;9.162;2023-02-28T04:04:33;-1.20;99.90
35541;DHT22;21650;48.840;9.162;2023-02-28T04:07:07;-1.20;99.90
35541;DHT22;21650;48.840;9.162;2023-02-28T04:09:33;-1.20;99.90
35541;DHT22;21650;48.840;9.162;2023-02-28T04:11:59;-1.20;99.90
35541;DHT22;21650;48.840;9.162;2023-02-28T04:14:25;-1.20;99.90
35541;DHT22;21650;48.840;9.162;2023-02-28T04:16:50;-1.20;99.90
35541;DHT22;21650;48.840;9.162;2023-02-28T04:19:16;-1.20;99.90
35541;DHT22;21650;48.840;9.162;2023-02-28T04:21:52;-1.20;99.90
35541;DHT22;21650;48.840;9.162;2023-02-28T04:24:21;-1.20;99.90
35541;DHT22;21650;48.840;9.162;2023-02-28T04:26:49;-1.20;99.90
35541;DHT22;21650;48.840;9.162;2023-02-28T04:29:21;-1.20;99.90
35541;DHT22;21650;48.840;9.162;2023-02-28T04:31:47;-1.10;99.90
35541;DHT22;21650;48.840;9.162;2023-02-28T04:34:13;-1.10;99.90
35541;DHT22;21650;48.840;9.162;2023-02-28T04:36:38;-1.10;99.90
35541;DHT22;21650;48.840;9.162;2023-02-28T04:39:04;-1.10;99.90
35541;DHT22;21650;48.840;9.162;2023-02-28T04:41:30;-1.10;99.90
35541;DHT22;21650;48.840;9.162;2023-02-28T04:43:55;-1.10;99.90
35541;DHT22;21650;48.840;9.162;2023-02-28T04:46:22;-1.10;99.90
35541;DHT22;21650;48.840;9.162;2023-02-28T04:48:48;-1.10;99.90
35541;DHT22;21650;48.840;9.162;2023-02-28T04:51:15;-1.10;99.90
35541;DHT22;21650;48.840;9.162;2023-02-28T04:53:42;-1.10;99.90
35541;DHT22;21650;48.840;9.162;2023-02-28T04:56:11;-1.10;99.90
35541;DHT22;21650;48.840;9.162;2023-02-28T04:58:37;-1.10;99.90
35541;DHT22;21650;48.840;9.162;2023-02-28T05:01:05;-1.00;99.90
35541;DHT22;21650;48.840;9.162;2023-02-28T05:03:38;-1.10;99.90
35541;DHT22;21650;48.840;9.162;2023-02-28T05:06:06;-1.10;99.90
35541;DHT22;21650;48.840;9.162;2023-02-28T05:08:32;-1.10;99.90
35541;DHT22;21650;48.840;9.162;2023-02-28T05:10:58;-1.10;99.90
35541;DHT22;21650;48.840;9.162;2023-02-28T05:13:26;-1.10;99.90
35541;DHT22;21650;48.840;9.162;2023-02-28T05:15:52;-1.00;99.90
35541;DHT22;21650;48.840;9.162;2023-02-28T05:18:17;-1.00;99.90
35541;DHT22;21650;48.840;9.162;2023-02-28T05:20:42;-1.00;99.90
35541;DHT22;21650;48.840;9.162;2023-02-28T05:23:11;-1.00;99.90
35541;DHT22;21650;48.840;9.162;2023-02-28T05:25:38;-1.00;99.90
35541;DHT22;21650;48.840;9.162;2023-02-28T05:28:04;-1.00;99.90
35541;DHT22;21650;48.840;9.162;2023-02-28T05:30:29;-1.00;99.90
35541;DHT22;21650;48.840;9.162;2023-02-28T05:32:56;-1.00;99.90
35541;DHT22;21650;48.840;9.162;2023-02-28T05:35:22;-1.00;99.90
35541;DHT22;21650;48.840;9.162;2023-02-28T05:37:48;-1.00;99.90
35541;DHT22;21650;48.840;9.162;2023-02-28T05:40:14;-1.00;99.90
35541;DHT22;21650;48.840;9.162;2023-02-28T05:42:40;-1.00;99.90
35541;DHT22;21650;48.840;9.162;2023-02-28T05:45:07;-1.00;99.90
35541;DHT22;21650;48.840;9.162;2023-02-28T05:47:32;-0.90;99.90
35541;DHT22;21650;48.840;9.162;2023-02-28T05:49:58;-0.90;99.90
35541;DHT22;21650;48.840;9.162;2023-02-28T05:52:24;-0.90;99.90
35541;DHT22;21650;48.840;9.162;2023-02-28T05:54:49;-0.90;99.90
35541;DHT22;21650;48.840;9.162;2023-02-28T05:57:15;-0.90;99.90
35541;DHT22;21650;48.840;9.162;2023-02-28T05:59:40;-0.90;99.90
35541;DHT22;21650;48.840;9.162;2023-02-28T06:02:12;-0.90;99.90
35541;DHT22;21650;48.840;9.162;2023-02-28T06:04:38;-0.90;99.90
35541;DHT22;21650;48.840;9.162;2023-02-28T06:07:03;-0.90;99.90
35541;DHT22;21650;48.840;9.162;2023-02-28T06:09:29;-0.90;99.90
35541;DHT22;21650;48.840;9.162;2023-02-28T06:11:56;-0.90;99.90
35541;DHT22;21650;48.840;9.162;2023-02-28T06:14:22;-0.90;99.90
35541;DHT22;21650;48.840;9.162;2023-02-28T06:16:48;-0.90;99.90
35541;DHT22;21650;48.840;9.162;2023-02-28T06:19:14;-0.90;99.90
35541;DHT22;21650;48.840;9.162;2023-02-28T06:21:40;-0.90;99.90
35541;DHT22;21650;48.840;9.162;2023-02-28T06:24:06;-0.80;99.90
35541;DHT22;21650;48.840;9.162;2023-02-28T06:26:32;-0.90;99.90
35541;DHT22;21650;48.840;9.162;2023-02-28T06:28:57;-0.80;99.90
35541;DHT22;21650;48.840;9.162;2023-02-28T06:31:23;-0.80;99.90
35541;DHT22;21650;48.840;9.162;2023-02-28T06:33:51;-0.80;99.90
35541;DHT22;21650;48.840;9.162;2023-02-28T06:36:17;-0.80;99.90
35541;DHT22;21650;48.840;9.162;2023-02-28T06:38:43;-0.80;99.90
35541;DHT22;21650;48.840;9.162;2023-02-28T06:41:10;-0.80;99.90
35541;DHT22;21650;48.840;9.162;2023-02-28T06:43:39;-0.80;99.90
35541;DHT22;21650;48.840;9.162;2023-02-28T06:46:08;-0.70;99.90
35541;DHT22;21650;48.840;9.162;2023-02-28T06:48:34;-0.70;99.90
35541;DHT22;21650;48.840;9.162;2023-02-28T06:51:07;-0.80;99.90
35541;DHT22;21650;48.840;9.162;2023-02-28T06:53:33;-0.70;99.90
35541;DHT22;21650;48.840;9.162;2023-02-28T06:55:59;-0.70;99.90
35541;DHT22;21650;48.840;9.162;2023-02-28T06:58:25;-0.70;99.90
35541;DHT22;21650;48.840;9.162;2023-02-28T07:00:51;-0.70;99.90
35541;DHT22;21650;48.840;9.162;2023-02-28T07:03:17;-0.70;99.90
35541;DHT22;21650;48.840;9.162;2023-02-28T07:05:43;-0.70;99.90
35541;DHT22;21650;48.840;9.162;2023-02-28T07:08:09;-0.70;99.90
35541;DHT22;21650;48.840;9.162;2023-02-28T07:10:37;-0.70;99.90
35541;DHT22;21650;48.840;9.162;2023-02-28T07:13:04;-0.70;99.90
35541;DHT22;21650;48.840;9.162;2023-02-28T07:15:29;-0.60;99.90
35541;DHT22;21650;48.840;9.162;2023-02-28T07:17:55;-0.60;99.90
35541;DHT22;21650;48.840;9.162;2023-02-28T07:20:22;-0.60;99.90
35541;DHT22;21650;48.840;9.162;2023-02-28T07:22:48;-0.60;99.90
35541;DHT22;21650;48.840;9.162;2023-02-28T07:25:21;-0.60;99.90
35541;DHT22;21650;48.840;9.162;2023-02-28T07:27:46;-0.60;99.90
35541;DHT22;21650;48.840;9.162;2023-02-28T07:30:12;-0.60;99.90
35541;DHT22;21650;48.840;9.162;2023-02-28T07:32:38;-0.60;99.90
35541;DHT22;21650;48.840;9.162;2023-02-28T07:35:04;-0.60;99.90
35541;DHT22;21650;48.840;9.162;2023-02-28T07:37:29;-0.50;99.90
35541;DHT22;21650;48.840;9.162;2023-02-28T07:39:57;-0.50;99.90
35541;DHT22;21650;48.840;9.162;2023-02-28T07:42:22;-0.60;99.90
35541;DHT22;21650;48.840;9.162;2023-02-28T07:44:48;-0.50;99.90
35541;DHT22;21650;48.840;9.162;2023-02-28T07:47:14;-0.40;99.90
35541;DHT22;21650;48.840;9.162;2023-02-28T07:49:39;-0.50;99.90
35541;DHT22;21650;48.840;9.162;2023-02-28T07:52:07;-0.50;99.90
35541;DHT22;21650;48.840;9.162;2023-02-28T07:54:33;-0.50;99.90
35541;DHT22;21650;48.840;9.162;2023-02-28T07:56:59;-0.50;99.90
35541;DHT22;21650;48.840;9.162;2023-02-28T07:59:24;-0.40;99.90
35541;DHT22;21650;48.840;9.162;2023-02-28T08:01:50;-0.40;99.90
35541;DHT22;21650;48.840;9.162;2023-02-28T08:04:17;-0.40;99.90
35541;DHT22;21650;48.840;9.162;2023-02-28T08:06:43;-0.40;99.90
35541;DHT22;21650;48.840;9.162;2023-02-28T08:09:08;-0.40;99.90
35541;DHT22;21650;48.840;9.162;2023-02-28T08:11:34;-0.40;99.90
35541;DHT22;21650;48.840;9.162;2023-02-28T08:13:59;-0.40;99.90
35541;DHT22;21650;48.840;9.162;2023-02-28T08:16:25;-0.30;99.90
35541;DHT22;21650;48.840;9.162;2023-02-28T08:18:52;-0.40;99.90
35541;DHT22;21650;48.840;9.162;2023-02-28T08:21:19;-0.40;99.90
35541;DHT22;21650;48.840;9.162;2023-02-28T08:23:47;-0.30;99.90
35541;DHT22;21650;48.840;9.162;2023-02-28T08:26:14;-0.30;99.90
35541;DHT22;21650;48.840;9.162;2023-02-28T08:28:39;-0.20;99.90
35541;DHT22;21650;48.840;9.162;2023-02-28T08:31:10;-0.20;99.90
35541;DHT22;21650;48.840;9.162;2023-02-28T08:33:36;-0.10;99.90
35541;DHT22;21650;48.840;9.162;2023-02-28T08:36:02;-0.10;99.90
35541;DHT22;21650;48.840;9.162;2023-02-28T08:38:27;-0.20;99.90
35541;DHT22;21650;48.840;9.162;2023-02-28T08:41:00;-0.20;99.90
35541;DHT22;21650;48.840;9.162;2023-02-28T08:43:26;-0.10;99.90
35541;DHT22;21650;48.840;9.162;2023-02-28T08:45:55;-0.10;99.90
35541;DHT22;21650;48.840;9.162;2023-02-28T08:48:23;0.00;99.90
35541;DHT22;21650;48.840;9.162;2023-02-28T08:50:59;0.00;99.90
35541;DHT22;21650;48.840;9.162;2023-02-28T08:53:25;0.00;99.90
35541;DHT22;21650;48.840;9.162;2023-02-28T08:56:02;0.10;99.90
35541;DHT22;21650;48.840;9.162;2023-02-28T08:58:28;0.00;99.90
35541;DHT22;21650;48.840;9.162;2023-02-28T09:00:54;0.00;99.90
35541;DHT22;21650;48.840;9.162;2023-02-28T09:03:21;0.10;99.90
35541;DHT22;21650;48.840;9.162;2023-02-28T09:05:54;0.10;99.90
35541;DHT22;21650;48.840;9.162;2023-02-28T09:08:20;0.20;99.90
35541;DHT22;21650;48.840;9.162;2023-02-28T09:10:46;0.20;99.90
35541;DHT22;21650;48.840;9.162;2023-02-28T09:13:12;0.20;99.90
35541;DHT22;21650;48.840;9.162;2023-02-28T09:15:38;0.30;99.90
35541;DHT22;21650;48.840;9.162;2023-02-28T09:18:04;0.30;99.90
35541;DHT22;21650;48.840;9.162;2023-02-28T09:20:30;0.40;99.90
35541;DHT22;21650;48.840;9.162;2023-02-28T09:22:55;0.40;99.90
35541;DHT22;21650;48.840;9.162;2023-02-28T09:25:21;0.50;99.90
35541;DHT22;21650;48.840;9.162;2023-02-28T09:27:46;0.60;99.90
35541;DHT22;21650;48.840;9.162;2023-02-28T09:30:13;0.60;99.90
35541;DHT22;21650;48.840;9.162;2023-02-28T09:32:38;0.60;99.90
35541;DHT22;21650;48.840;9.162;2023-02-28T09:35:05;0.70;99.90
35541;DHT22;21650;48.840;9.162;2023-02-28T09:37:30;0.80;99.90
35541;DHT22;21650;48.840;9.162;2023-02-28T09:39:56;0.80;99.90
35541;DHT22;21650;48.840;9.162;2023-02-28T09:42:35;0.90;99.90
35541;DHT22;21650;48.840;9.162;2023-02-28T09:45:06;1.00;99.90
35541;DHT22;21650;48.840;9.162;2023-02-28T09:47:41;1.10;99.90
35541;DHT22;21650;48.840;9.162;2023-02-28T09:50:21;1.10;99.90
35541;DHT22;21650;48.840;9.162;2023-02-28T09:52:49;1.10;99.90
35541;DHT22;21650;48.840;9.162;2023-02-28T09:55:28;1.20;99.90
35541;DHT22;21650;48.840;9.162;2023-02-28T09:57:56;1.20;99.90
35541;DHT22;21650;48.840;9.162;2023-02-28T10:00:32;1.20;99.90
35541;DHT22;21650;48.840;9.162;2023-02-28T10:03:24;1.30;99.90
35541;DHT22;21650;48.840;9.162;2023-02-28T10:08:41;1.40;99.90
35541;DHT22;21650;48.840;9.162;2023-02-28T10:11:13;1.40;99.90
35541;DHT22;21650;48.840;9.162;2023-02-28T10:13:59;1.50;99.90
35541;DHT22;21650;48.840;9.162;2023-02-28T10:22:08;1.40;99.90
35541;DHT22;21650;48.840;9.162;2023-02-28T10:27:16;1.60;99.90
35541;DHT22;21650;48.840;9.162;2023-02-28T10:29:45;1.70;99.90
35541;DHT22;21650;48.840;9.162;2023-02-28T10:32:17;1.70;99.90
35541;DHT22;21650;48.840;9.162;2023-02-28T10:34:44;1.80;99.90
35541;DHT22;21650;48.840;9.162;2023-02-28T10:37:11;1.90;99.90
35541;DHT22;21650;48.840;9.162;2023-02-28T10:39:43;2.00;99.90
35541;DHT22;21650;48.840;9.162;2023-02-28T10:42:26;2.10;99.90
35541;DHT22;21650;48.840;9.162;2023-02-28T10:45:07;2.10;99.90
35541;DHT22;21650;48.840;9.162;2023-02-28T10:47:40;2.20;99.90
35541;DHT22;21650;48.840;9.162;2023-02-28T10:50:33;2.30;99.90
35541;DHT22;21650;48.840;9.162;2023-02-28T10:55:57;2.60;99.90
35541;DHT22;21650;48.840;9.162;2023-02-28T10:58:25;2.60;99.90
35541;DHT22;21650;48.840;9.162;2023-02-28T11:00:52;2.80;99.90
35541;DHT22;21650;48.840;9.162;2023-02-28T11:03:30;2.80;99.90
35541;DHT22;21650;48.840;9.162;2023-02-28T11:05:56;2.60;99.90
35541;DHT22;21650;48.840;9.162;2023-02-28T11:08:22;2.60;99.90
35541;DHT22;21650;48.840;9.162;2023-02-28T11:10:56;2.50;99.90
35541;DHT22;21650;48.840;9.162;2023-02-28T11:13:27;2.50;99.90
35541;DHT22;21650;48.840;9.162;2023-02-28T11:15:55;2.60;99.90
35541;DHT22;21650;48.840;9.162;2023-02-28T11:18:27;2.50;99.90
35541;DHT22;21650;48.840;9.162;2023-02-28T11:20:55;2.60;99.90
35541;DHT22;21650;48.840;9.162;2023-02-28T11:23:25;2.70;99.90
35541;DHT22;21650;48.840;9.162;2023-02-28T11:25:54;2.80;99.90
35541;DHT22;21650;48.840;9.162;2023-02-28T11:31:19;2.90;99.90
35541;DHT22;21650;48.840;9.162;2023-02-28T11:33:52;2.80;99.90
35541;DHT22;21650;48.840;9.162;2023-02-28T11:36:25;2.70;99.90
35541;DHT22;21650;48.840;9.162;2023-02-28T11:38:53;2.80;99.90
35541;DHT22;21650;48.840;9.162;2023-02-28T11:41:42;2.70;99.90
35541;DHT22;21650;48.840;9.162;2023-02-28T11:46:56;2.70;99.90
35541;DHT22;21650;48.840;9.162;2023-02-28T11:49:32;2.70;99.90
35541;DHT22;21650;48.840;9.162;2023-02-28T11:52:36;2.80;99.90
35541;DHT22;21650;48.840;9.162;2023-02-28T12:13:46;3.60;99.90
35541;DHT22;21650;48.840;9.162;2023-02-28T12:19:00;3.70;99.90
35541;DHT22;21650;48.840;9.162;2023-02-28T12:27:11;4.00;99.90
35541;DHT22;21650;48.840;9.162;2023-02-28T12:29:58;4.20;99.90
35541;DHT22;21650;48.840;9.162;2023-02-28T12:32:33;4.30;99.90
35541;DHT22;21650;48.840;9.162;2023-02-28T12:37:39;4.30;99.90
35541;DHT22;21650;48.840;9.162;2023-02-28T12:40:31;4.30;99.90
35541;DHT22;21650;48.840;9.162;2023-02-28T12:43:03;4.40;99.90
35541;DHT22;21650;48.840;9.162;2023-02-28T12:45:50;4.50;99.90
35541;DHT22;21650;48.840;9.162;2023-02-28T12:48:31;4.40;99.90
35541;DHT22;21650;48.840;9.162;2023-02-28T12:51:03;4.30;99.90
35541;DHT22;21650;48.840;9.162;2023-02-28T12:53:53;4.50;99.90
35541;DHT22;21650;48.840;9.162;2023-02-28T12:58:59;4.70;99.90
35541;DHT22;21650;48.840;9.162;2023-02-28T13:02:00;4.90;99.90
35541;DHT22;21650;48.840;9.162;2023-02-28T13:10:18;5.20;99.70
35541;DHT22;21650;48.840;9.162;2023-02-28T13:12:53;5.10;99.50
35541;DHT22;21650;48.840;9.162;2023-02-28T13:15:27;5.10;99.50
35541;DHT22;21650;48.840;9.162;2023-02-28T13:17:58;5.20;99.40
35541;DHT22;21650;48.840;9.162;2023-02-28T13:20:34;5.10;98.90
35541;DHT22;21650;48.840;9.162;2023-02-28T13:23:00;5.10;98.40
35541;DHT22;21650;48.840;9.162;2023-02-28T13:28:01;5.20;98.80
35541;DHT22;21650;48.840;9.162;2023-02-28T13:33:28;5.00;98.30
35541;DHT22;21650;48.840;9.162;2023-02-28T13:46:28;5.50;98.00
35541;DHT22;21650;48.840;9.162;2023-02-28T13:48:54;5.70;98.50
35541;DHT22;21650;48.840;9.162;2023-02-28T13:51:47;5.80;98.30
35541;DHT22;21650;48.840;9.162;2023-02-28T14:05:06;5.40;97.80
35541;DHT22;21650;48.840;9.162;2023-02-28T14:07:50;5.50;97.70
35541;DHT22;21650;48.840;9.162;2023-02-28T14:11:06;5.50;97.60
35541;DHT22;21650;48.840;9.162;2023-02-28T14:13:41;5.60;97.80
35541;DHT22;21650;48.840;9.162;2023-02-28T14:16:20;5.80;98.00
35541;DHT22;21650;48.840;9.162;2023-02-28T14:19:01;5.70;97.40
35541;DHT22;21650;48.840;9.162;2023-02-28T14:21:32;5.60;97.30
35541;DHT22;21650;48.840;9.162;2023-02-28T14:27:03;5.60;97.10
35541;DHT22;21650;48.840;9.162;2023-02-28T14:35:29;5.70;97.30
35541;DHT22;21650;48.840;9.162;2023-02-28T14:38:05;5.80;97.20
35541;DHT22;21650;48.840;9.162;2023-02-28T14:40:35;5.90;97.40
35541;DHT22;21650;48.840;9.162;2023-02-28T14:43:06;5.80;96.80
35541;DHT22;21650;48.840;9.162;2023-02-28T14:45:42;5.90;97.40
35541;DHT22;21650;48.840;9.162;2023-02-28T14:48:10;5.70;96.90
35541;DHT22;21650;48.840;9.162;2023-02-28T14:50:36;5.70;97.30
35541;DHT22;21650;48.840;9.162;2023-02-28T14:53:03;5.80;96.90
35541;DHT22;21650;48.840;9.162;2023-02-28T14:55:32;5.90;97.50
35541;DHT22;21650;48.840;9.162;2023-02-28T14:58:01;5.90;97.40
35541;DHT22;21650;48.840;9.162;2023-02-28T15:00:36;5.90;96.70
35541;DHT22;21650;48.840;9.162;2023-02-28T15:03:36;5.90;97.00
35541;DHT22;21650;48.840;9.162;2023-02-28T15:06:05;5.80;97.20
35541;DHT22;21650;48.840;9.162;2023-02-28T15:08:31;5.80;97.00
35541;DHT22;21650;48.840;9.162;2023-02-28T15:11:02;5.70;97.60
35541;DHT22;21650;48.840;9.162;2023-02-28T15:14:04;5.80;97.50
35541;DHT22;21650;48.840;9.162;2023-02-28T15:16:39;5.80;97.20
35541;DHT22;21650;48.840;9.162;2023-02-28T15:19:28;5.70;97.00
35541;DHT22;21650;48.840;9.162;2023-02-28T15:22:06;5.60;97.20
35541;DHT22;21650;48.840;9.162;2023-02-28T15:24:52;5.70;98.00
35541;DHT22;21650;48.840;9.162;2023-02-28T15:27:22;5.50;97.70
35541;DHT22;21650;48.840;9.162;2023-02-28T15:29:50;5.50;97.60
35541;DHT22;21650;48.840;9.162;2023-02-28T15:32:34;5.50;97.60
35541;DHT22;21650;48.840;9.162;2023-02-28T15:40:46;5.30;97.60
35541;DHT22;21650;48.840;9.162;2023-02-28T15:43:27;5.30;98.10
35541;DHT22;21650;48.840;9.162;2023-02-28T15:46:09;5.30;98.50
35541;DHT22;21650;48.840;9.162;2023-02-28T15:48:36;5.20;98.00
35541;DHT22;21650;48.840;9.162;2023-02-28T15:51:29;5.20;97.90
35541;DHT22;21650;48.840;9.162;2023-02-28T15:54:07;5.10;98.20
35541;DHT22;21650;48.840;9.162;2023-02-28T15:56:43;5.10;98.50
35541;DHT22;21650;48.840;9.162;2023-02-28T15:59:15;5.00;98.40
35541;DHT22;21650;48.840;9.162;2023-02-28T16:01:43;5.00;98.40
35541;DHT22;21650;48.840;9.162;2023-02-28T16:04:17;5.00;98.80
35541;DHT22;21650;48.840;9.162;2023-02-28T16:07:04;5.00;98.50
35541;DHT22;21650;48.840;9.162;2023-02-28T16:09:30;5.00;98.50
35541;DHT22;21650;48.840;9.162;2023-02-28T16:11:59;4.90;98.40
35541;DHT22;21650;48.840;9.162;2023-02-28T16:14:28;5.00;98.80
35541;DHT22;21650;48.840;9.162;2023-02-28T16:17:03;4.90;99.00
35541;DHT22;21650;48.840;9.162;2023-02-28T16:19:29;4.80;99.00
35541;DHT22;21650;48.840;9.162;2023-02-28T16:21:56;4.80;99.00
35541;DHT22;21650;48.840;9.162;2023-02-28T16:24:22;4.80;99.10
35541;DHT22;21650;48.840;9.162;2023-02-28T16:26:48;4.70;99.20
35541;DHT22;21650;48.840;9.162;2023-02-28T16:29:29;4.70;99.10
35541;DHT22;21650;48.840;9.162;2023-02-28T16:31:56;4.60;99.10
35541;DHT22;21650;48.840;9.162;2023-02-28T16:34:22;4.60;99.30
35541;DHT22;21650;48.840;9.162;2023-02-28T16:36:48;4.60;99.20
35541;DHT22;21650;48.840;9.162;2023-02-28T16:39:14;4.50;99.60
35541;DHT22;21650;48.840;9.162;2023-02-28T16:41:43;4.50;99.60
35541;DHT22;21650;48.840;9.162;2023-02-28T16:44:28;4.40;99.70
35541;DHT22;21650;48.840;9.162;2023-02-28T16:46:54;4.30;99.90
35541;DHT22;21650;48.840;9.162;2023-02-28T16:49:20;4.30;99.90
35541;DHT22;21650;48.840;9.162;2023-02-28T16:51:46;4.20;99.90
35541;DHT22;21650;48.840;9.162;2023-02-28T16:54:12;4.20;99.90
35541;DHT22;21650;48.840;9.162;2023-02-28T16:56:39;4.10;99.90
35541;DHT22;21650;48.840;9.162;2023-02-28T16:59:08;4.00;99.90
35541;DHT22;21650;48.840;9.162;2023-02-28T17:01:34;4.00;99.90
35541;DHT22;21650;48.840;9.162;2023-02-28T17:03:59;3.90;99.90
35541;DHT22;21650;48.840;9.162;2023-02-28T17:06:27;3.80;99.90
35541;DHT22;21650;48.840;9.162;2023-02-28T17:08:54;3.70;99.90
35541;DHT22;21650;48.840;9.162;2023-02-28T17:11:22;3.70;99.90
35541;DHT22;21650;48.840;9.162;2023-02-28T17:14:06;3.60;99.90
35541;DHT22;21650;48.840;9.162;2023-02-28T17:16:33;3.50;99.90
35541;DHT22;21650;48.840;9.162;2023-02-28T17:19:03;3.50;99.90
35541;DHT22;21650;48.840;9.162;2023-02-28T17:21:30;3.50;99.90
35541;DHT22;21650;48.840;9.162;2023-02-28T17:23:57;3.40;99.90
35541;DHT22;21650;48.840;9.162;2023-02-28T17:26:23;3.40;99.90
35541;DHT22;21650;48.840;9.162;2023-02-28T17:28:53;3.40;99.90
35541;DHT22;21650;48.840;9.162;2023-02-28T17:31:21;3.20;99.90
35541;DHT22;21650;48.840;9.162;2023-02-28T17:33:47;3.30;99.90
35541;DHT22;21650;48.840;9.162;2023-02-28T17:36:20;3.20;99.90
35541;DHT22;21650;48.840;9.162;2023-02-28T17:38:47;3.10;99.90
35541;DHT22;21650;48.840;9.162;2023-02-28T17:41:13;3.10;99.90
35541;DHT22;21650;48.840;9.162;2023-02-28T17:43:39;3.10;99.90
35541;DHT22;21650;48.840;9.162;2023-02-28T17:46:05;3.00;99.90
35541;DHT22;21650;48.840;9.162;2023-02-28T17:48:32;3.10;99.90
35541;DHT22;21650;48.840;9.162;2023-02-28T17:50:58;3.10;99.90
35541;DHT22;21650;48.840;9.162;2023-02-28T17:53:23;3.00;99.90
35541;DHT22;21650;48.840;9.162;2023-02-28T17:55:50;2.90;99.90
35541;DHT22;21650;48.840;9.162;2023-02-28T17:58:15;2.90;99.90